Aérodrome :
LOGIN :

S'inscrire | Disclaimer

   EN    FR    IT 

 










Légende :    VFR   VFR Marginal   IFR   IFR Intensif   IFR Très Intensif
Visi : 
Plafond : 
>= 8 km
>= 3000ft
5 à 8 km
1000 à 3000 ft
1500m à 5 km
500 à 1000 ft
800 à 1500m
200 à 500 ft
< 800m
< 200 ft
Symboles :   Orages  Brouillard  Fortes neiges  Fortes précipitations  Vent > 20 kt
SIGMETs :   Divers  Orages  Givrage  Turbulence  Onde Orograph.  Cendres Volcan.







- Altitude de l'aérodrome : 36 ft
- Code IATA : LTQ
- Voir les cartes d'approche


LFAT - Le Touquet

DERNIER METAR :
  • 221830Z AUTO 11010KT 4200 -RA BR BKN007 BKN019 BKN028 11/10 Q1015 TEMPO RA

METARs EXPIRÉS :
  • 221800Z AUTO 13007KT 4500 -RA BR BKN007 BKN042 OVC054 11/10 Q1016 TEMPO RA
  • 221730Z AUTO 14005KT 3000 -RA BR BKN007 OVC032 11/10 Q1017 TEMPO RA
  • 221700Z AUTO 13007KT 4000 -RA BR SCT006 BKN010 BKN028 11/10 Q1017 TEMPO RA
  • 221630Z AUTO 14005KT 6000 DZ FEW024 BKN029 BKN040 11/10 Q1017 TEMPO 4000 RA BKN006 OVC013
  • 221600Z AUTO 15004KT 5000 -RA BR SCT032 SCT038 BKN044 11/10 Q1018 TEMPO RA BKN013

TAF TAF LFAT
Valide du 22 à 15h jusqu'au 23 à 00h UTC


221400Z 2215/2224 24008KT 9999 BKN025
TEMPO 2215/2224 4000 RA BKN013
BECMG 2215/2219 12013KT
PROB40
TEMPO 2218/2224 BKN006 OVC013
ATIS : +33 3 21 06 62 84
Pas de NOTAMs connus pour ce terrain.
1 SIGMET publié pour la FIR Paris (LFFF) :
 
Turbulence forte
LFFF SIGMET 2 VALID 221600/222000 LFPW
LFFF PARIS FIR/UIR SEV TURB FCST WI N4815 W00015 - N4915 W00015 - N4915 E00000 - N4815 E00000 - N4815 W00015 SFC/FL060 MOV E 15KT WKN=



MET'MAP, la Météo Aéronautique d'un coup d'oeil ! - Copyright ORBIFLY Décembre 2007 - Disclaimer

ORBIFLY MET'MAP TEAM :

Programmation & Développement : Alexandra Zaïnal
Conception & Développement : Baudouin d'Aumeries
Co-Programmation & Développement : Marc-Olivier Méhu
Soutien technique & logistique : Manuel Goepfert

Contact : metmap@orbifly.com




SOURCES & CREDITS :

   NOAA